NCAR-RAP Real-Time Weather Data

Output produced by METARs form (08 May 2021  16:42 UTC)
found at http://weather.rap.ucar.edu/surface/
 
KSAT 081551Z 18013G25KT 10SM FEW023 BKN030 BKN039 26/19 A2997 RMK AO2 SLP131 T02560194
KSAT 081451Z 17015KT 10SM BKN017 BKN037 BKN250 24/20 A2996 RMK AO2 SLP130 T02440200 50001
KSAT 081444Z 16014G18KT 10SM BKN017 BKN037 BKN250 24/20 A2997 RMK AO2 T02440200
KSAT 081351Z 16009KT 10SM BKN012 OVC034 23/20 A2998 RMK AO2 SLP136 T02280200
KSAT 081251Z 13008KT 10SM OVC010 22/19 A2997 RMK AO2 SLP129 T02170194
KSAT 081246Z 14009KT 10SM OVC010 22/19 A2997 RMK AO2
KSAT 081151Z COR 15006KT 10SM BKN011 OVC024 21/19 A2996 RMK AO2 CIG 009V012 SLP128 T02110189 10211 20206 55007
KSAT 081051Z 16009KT 10SM BKN012 BKN029 21/18 A2996 RMK AO2 SLP127 T02110183
KSAT 081040Z 16006KT 10SM BKN012 BKN029 21/18 A2996 RMK AO2 T02110183
KSAT 080951Z 16007KT 10SM BKN016 BKN250 21/18 A2997 RMK AO2 SLP130 T02060178
KSAT 080851Z 14009KT 10SM BKN017 BKN250 21/17 A2998 RMK AO2 SLP136 T02060172 56020
KSAT 080817Z 16008KT 10SM BKN017 BKN250 21/17 A2999 RMK AO2 T02060172
KSAT 080751Z 16013KT 10SM SCT021 BKN250 21/17 A2999 RMK AO2 SLP137 T02060167
KSAT 080722Z 17014G19KT 10SM SCT021 21/17 A3002 RMK AO2 T02110167
KSAT 080651Z 17010G19KT 10SM BKN020 BKN250 21/17 A3004 RMK AO2 SLP154 T02110167
KSAT 080551Z 17013G20KT 10SM BKN020 OVC250 21/17 A3004 RMK AO2 SLP156 T02110172 10283 20211 403000156 51008
KSAT 080451Z 15010KT 10SM BKN019 BKN250 22/17 A3004 RMK AO2 SLP156 T02170167
KSAT 080431Z COR 15012G21KT 10SM BKN020 BKN250 22/17 A3004 RMK AO2 T02170167
KSAT 080351Z 16016KT 10SM FEW050 SCT250 22/16 A3004 RMK AO2 PK WND 16026/0341 SLP156 T02220161
KSAT 080251Z 14014KT 10SM FEW050 FEW250 23/15 A3002 RMK AO2 SLP149 T02330150 53004
KSAT 080151Z 14015G20KT 10SM FEW050 FEW250 25/12 A2999 RMK AO2 SLP137 T02500117
KSAT 080051Z 14018G25KT 10SM FEW050 FEW250 27/15 A2999 RMK AO2 SLP137 T02670150
KSAT 072351Z 13017G22KT 10SM FEW050 FEW250 28/14 A3001 RMK AO2 SLP145 T02830144 10300 20267 56027
KSAT 072251Z 13012KT 10SM FEW050 FEW250 29/13 A3003 RMK AO2 SLP152 T02890128
KSAT 072151Z 14009G19KT 10SM FEW050 FEW250 29/13 A3005 RMK AO2 SLP160 T02940133
KSAT 072051Z 16008KT 10SM FEW050 FEW250 29/13 A3009 RMK AO2 SLP172 T02940133 58029
KSAT 071951Z 11007G18KT 090V170 10SM FEW045 SCT250 29/13 A3012 RMK AO2 SLP181 T02890133
KSAT 071851Z 14006KT 10SM FEW045 BKN250 28/13 A3015 RMK AO2 SLP191 T02830128
KSAT 071751Z COR VRB06KT 10SM FEW040 SCT250 27/13 A3017 RMK AO2 SLP201 T02720128 10272 20161 58012
KSAT 071651Z 13007KT 10SM FEW035 FEW250 27/14 A3020 RMK AO2 SLP210 T02670144
KSAT 071551Z 16012KT 10SM FEW250 26/14 A3021 RMK AO2 SLP212 T02560139
KSAT 071451Z 14010KT 10SM FEW250 24/14 A3021 RMK AO2 SLP212 T02440139 51015
KSAT 071351Z 00000KT 10SM FEW250 22/16 A3020 RMK AO2 SLP211 T02220156
KSAT 071251Z 30003KT 10SM FEW250 18/14 A3019 RMK AO2 SLP205 T01830144
KSAT 071151Z 30004KT 10SM FEW250 16/13 A3016 RMK AO2 SLP198 T01610133 10206 20156 53002
KSAT 071051Z 29004KT 10SM CLR 16/13 A3015 RMK AO2 SLP194 T01610133
KSAT 070951Z 00000KT 10SM CLR 18/13 A3016 RMK AO2 SLP194 T01830133
KSAT 070851Z 00000KT 10SM CLR 18/13 A3016 RMK AO2 SLP196 T01830133 55003
KSAT 070751Z 00000KT 10SM CLR 19/13 A3015 RMK AO2 SLP192 T01940128
KSAT 070651Z 00000KT 10SM CLR 20/12 A3016 RMK AO2 SLP196 T02000122
KSAT 070551Z 00000KT 10SM CLR 21/12 A3017 RMK AO2 SLP200 T02060122 10289 20206 403060156 50009
KSAT 070451Z 03003KT 10SM CLR 22/12 A3017 RMK AO2 SLP200 T02170122
KSAT 070351Z 00000KT 10SM CLR 23/12 A3016 RMK AO2 SLP198 T02330117
KSAT 070251Z 06003KT 10SM CLR 24/11 A3014 RMK AO2 SLP191 T02390111 53010
KSAT 070151Z 08004KT 10SM CLR 24/11 A3013 RMK AO2 SLP186 T02440111
KSAT 070051Z 08008KT 10SM CLR 27/11 A3011 RMK AO2 SLP182 T02670106
KSAT 062351Z 07008KT 10SM CLR 29/09 A3011 RMK AO2 SLP180 T02890089 10306 20261 56008
KSAT 062251Z 07010G17KT 10SM CLR 30/08 A3011 RMK AO2 SLP180 T03000078
KSAT 062151Z 09007KT 10SM CLR 30/12 A3012 RMK AO2 SLP182 T03000117
KSAT 062051Z VRB04G16KT 10SM FEW050 29/12 A3014 RMK AO2 SLP188 T02940117 56024
KSAT 061951Z 11009KT 10SM FEW050 29/13 A3016 RMK AO2 SLP195 T02940128
KSAT 061851Z 09007KT 10SM FEW045 28/14 A3018 RMK AO2 SLP204 T02830139
KSAT 061751Z VRB04KT 10SM FEW040 26/16 A3021 RMK AO2 SLP213 T02610156 10267 20161 58005
KSAT 061651Z 09006KT 10SM FEW035 26/16 A3022 RMK AO2 SLP218 T02560156